createdAt,value
2023-03-22T00:02:01.128Z,1.15
2023-03-22T00:04:27.871Z,1.63
2023-03-22T00:06:54.614Z,0.90
2023-03-22T00:09:21.839Z,1.83
2023-03-22T00:11:51.226Z,1.10
2023-03-22T00:14:20.971Z,1.15
2023-03-22T00:16:49.091Z,2.83
2023-03-22T00:19:17.964Z,3.42
2023-03-22T00:21:45.242Z,3.60
2023-03-22T00:24:13.500Z,7.72
2023-03-22T00:26:40.471Z,6.30
2023-03-22T00:29:07.222Z,11.77
2023-03-22T00:31:33.988Z,7.15
2023-03-22T00:34:00.926Z,14.15
2023-03-22T00:36:27.695Z,6.53
2023-03-22T00:38:54.409Z,4.00
2023-03-22T00:41:23.911Z,4.70
2023-03-22T00:43:51.707Z,3.03
2023-03-22T00:46:21.108Z,3.53
2023-03-22T00:48:48.356Z,2.55
2023-03-22T00:54:09.677Z,3.27
2023-03-22T00:56:50.018Z,3.42
2023-03-22T00:59:17.079Z,5.40
2023-03-22T01:01:44.248Z,4.97
2023-03-22T01:04:15.631Z,10.45
2023-03-22T01:06:42.634Z,6.30
2023-03-22T01:09:15.334Z,3.20
2023-03-22T01:14:37.163Z,4.82
2023-03-22T01:17:04.181Z,11.35
2023-03-22T01:19:31.187Z,4.20
2023-03-22T01:21:57.971Z,9.02
2023-03-22T01:24:24.851Z,7.40
2023-03-22T01:26:51.809Z,13.15
2023-03-22T01:29:18.374Z,6.47
2023-03-22T01:31:45.557Z,2.43
2023-03-22T01:34:12.108Z,4.55
2023-03-22T01:36:38.757Z,3.05
2023-03-22T01:39:05.529Z,3.15
2023-03-22T01:41:35.425Z,1.30
2023-03-22T01:44:18.515Z,2.57
2023-03-22T01:46:47.176Z,2.20
2023-03-22T01:49:34.605Z,2.13
2023-03-22T01:52:07.649Z,3.65
2023-03-22T01:54:42.837Z,1.90
2023-03-22T01:57:09.842Z,2.40
2023-03-22T01:59:36.949Z,1.58
2023-03-22T02:02:04.602Z,1.50
2023-03-22T02:04:34.526Z,0.98
2023-03-22T02:07:09.946Z,1.77
2023-03-22T02:09:41.363Z,1.60
2023-03-22T02:12:30.969Z,1.45
2023-03-22T02:15:05.877Z,2.42
2023-03-22T02:18:20.943Z,3.00
2023-03-22T02:21:05.578Z,4.50
2023-03-22T02:24:13.835Z,5.00
2023-03-22T02:27:12.860Z,2.53
2023-03-22T02:29:45.355Z,2.50
2023-03-22T02:32:34.947Z,5.72
2023-03-22T02:35:32.398Z,4.00
2023-03-22T02:38:43.258Z,6.73
2023-03-22T02:41:25.641Z,5.00
2023-03-22T02:44:06.353Z,5.50
2023-03-22T02:46:43.474Z,10.85
2023-03-22T02:49:30.701Z,7.45
2023-03-22T02:52:07.792Z,6.27
2023-03-22T02:54:51.088Z,5.45
2023-03-22T02:57:33.447Z,9.23
2023-03-22T03:00:08.283Z,7.32
2023-03-22T03:02:35.947Z,6.47
2023-03-22T03:05:03.695Z,5.00
2023-03-22T03:07:31.147Z,5.63
2023-03-22T03:09:58.301Z,5.68
2023-03-22T03:12:27.097Z,4.40
2023-03-22T03:14:54.234Z,5.10
2023-03-22T03:18:00.887Z,4.37
2023-03-22T03:20:37.311Z,12.57
2023-03-22T03:23:21.774Z,14.23
2023-03-22T03:26:31.839Z,8.90
2023-03-22T03:29:14.202Z,10.85
2023-03-22T03:31:53.739Z,8.43
2023-03-22T03:34:28.102Z,8.95
2023-03-22T03:37:03.481Z,7.05
2023-03-22T03:39:34.693Z,8.60
2023-03-22T03:42:02.834Z,7.93
2023-03-22T03:44:31.614Z,7.80
2023-03-22T03:46:59.441Z,6.80
2023-03-22T03:49:27.285Z,6.35
2023-03-22T03:51:55.715Z,5.75
2023-03-22T03:54:26.217Z,6.05
2023-03-22T03:56:53.918Z,5.73
2023-03-22T03:59:21.145Z,5.63
2023-03-22T04:01:51.830Z,6.45
2023-03-22T04:04:26.541Z,6.28
2023-03-22T04:06:59.561Z,7.05
2023-03-22T04:09:28.537Z,6.83
2023-03-22T04:11:56.067Z,5.90
2023-03-22T04:14:24.635Z,6.18
2023-03-22T04:16:51.359Z,5.88
2023-03-22T04:19:18.879Z,5.90
2023-03-22T04:21:45.997Z,5.77
2023-03-22T04:24:13.086Z,4.68
2023-03-22T04:26:40.005Z,5.53
2023-03-22T04:29:07.040Z,5.80
2023-03-22T04:31:34.122Z,6.07
2023-03-22T04:34:05.687Z,8.10
2023-03-22T04:36:40.843Z,8.35
2023-03-22T04:39:10.696Z,6.85
2023-03-22T04:41:37.771Z,5.60
2023-03-22T04:44:05.800Z,5.43
2023-03-22T04:46:34.990Z,6.03
2023-03-22T04:49:01.560Z,4.22
2023-03-22T04:51:28.870Z,5.13
2023-03-22T04:53:55.469Z,4.72
2023-03-22T04:56:22.381Z,4.65
2023-03-22T04:58:48.927Z,5.43
2023-03-22T05:01:17.921Z,5.00
2023-03-22T05:03:48.428Z,5.38
2023-03-22T05:06:15.294Z,8.65
2023-03-22T05:08:42.594Z,6.20
2023-03-22T05:11:15.218Z,5.80
2023-03-22T05:13:42.336Z,6.18
2023-03-22T05:16:10.167Z,6.30
2023-03-22T05:18:42.403Z,6.22
2023-03-22T05:21:15.507Z,5.03
2023-03-22T05:23:43.416Z,5.73
2023-03-22T05:26:11.281Z,5.82
2023-03-22T05:28:38.629Z,5.00
2023-03-22T05:31:05.817Z,5.45
2023-03-22T05:33:34.748Z,4.22
2023-03-22T05:36:01.372Z,4.23
2023-03-22T05:38:28.676Z,4.38
2023-03-22T05:40:55.312Z,3.60
2023-03-22T05:43:22.097Z,3.35
2023-03-22T05:45:49.532Z,3.25
2023-03-22T05:48:16.932Z,3.20
2023-03-22T05:50:43.572Z,3.70
2023-03-22T05:53:11.572Z,3.30
2023-03-22T05:55:38.366Z,3.42
2023-03-22T05:58:05.723Z,3.80
2023-03-22T06:00:32.377Z,2.57
2023-03-22T06:03:03.275Z,3.05
2023-03-22T06:05:36.629Z,3.00
2023-03-22T06:08:04.078Z,3.53
2023-03-22T06:10:30.932Z,3.38
2023-03-22T06:12:57.531Z,2.77
2023-03-22T06:15:24.198Z,2.70
2023-03-22T06:17:50.951Z,3.60
2023-03-22T06:20:20.278Z,2.13
2023-03-22T06:22:46.929Z,2.97
2023-03-22T06:25:15.436Z,2.47
2023-03-22T06:27:42.059Z,2.42
2023-03-22T06:30:09.112Z,2.90
2023-03-22T06:32:35.774Z,2.78
2023-03-22T06:35:02.406Z,3.08
2023-03-22T06:37:29.032Z,2.60
2023-03-22T06:39:55.600Z,1.83
2023-03-22T06:42:22.185Z,2.55
2023-03-22T06:44:48.912Z,1.95
2023-03-22T06:47:15.495Z,2.10
2023-03-22T06:49:42.222Z,1.90
2023-03-22T06:52:08.972Z,2.17
2023-03-22T06:54:35.743Z,2.05
2023-03-22T06:57:02.262Z,1.52
2023-03-22T06:59:28.863Z,1.77
2023-03-22T07:01:55.433Z,1.37
2023-03-22T07:04:22.161Z,2.45
2023-03-22T07:06:48.921Z,2.00
2023-03-22T07:09:15.892Z,1.52
2023-03-22T07:11:42.680Z,2.35
2023-03-22T07:14:09.595Z,1.63
2023-03-22T07:16:36.111Z,2.10
2023-03-22T07:19:02.821Z,2.17
2023-03-22T07:21:29.593Z,1.33
2023-03-22T07:23:56.280Z,1.85
2023-03-22T07:26:22.871Z,1.23
2023-03-22T07:28:49.506Z,1.35
2023-03-22T07:31:16.367Z,1.40
2023-03-22T07:33:43.167Z,1.50
2023-03-22T07:36:10.681Z,1.60
2023-03-22T07:38:37.946Z,1.23
2023-03-22T07:44:14.812Z,1.30
2023-03-22T07:46:44.050Z,1.25
2023-03-22T07:49:11.098Z,1.48
2023-03-22T07:51:37.725Z,1.03
2023-03-22T07:54:07.530Z,1.48
2023-03-22T07:56:35.260Z,2.95
2023-03-22T07:59:02.164Z,1.20
2023-03-22T08:01:29.076Z,1.40
2023-03-22T08:03:55.720Z,0.80
2023-03-22T08:06:22.392Z,1.02
2023-03-22T08:08:49.131Z,0.98
2023-03-22T08:11:15.938Z,1.33
2023-03-22T08:16:38.364Z,1.10
2023-03-22T08:19:05.622Z,0.90
2023-03-22T08:24:27.350Z,1.10
2023-03-22T08:26:54.221Z,0.95
2023-03-22T08:29:23.051Z,1.27
2023-03-22T08:31:51.434Z,1.02
2023-03-22T08:34:18.016Z,1.05
2023-03-22T08:36:44.877Z,1.65
2023-03-22T08:39:11.554Z,1.30
2023-03-22T08:41:39.373Z,1.50
2023-03-22T08:44:06.611Z,1.92
2023-03-22T08:46:33.447Z,1.50
2023-03-22T08:49:02.427Z,1.55
2023-03-22T08:54:55.910Z,1.23
2023-03-22T08:57:25.958Z,2.13
2023-03-22T08:59:53.351Z,1.48
2023-03-22T09:02:20.702Z,0.90
2023-03-22T09:04:47.721Z,0.88
2023-03-22T09:07:14.385Z,1.10
2023-03-22T09:09:40.953Z,1.20
2023-03-22T09:12:08.105Z,1.15
2023-03-22T09:14:35.345Z,1.05
2023-03-22T09:17:02.610Z,1.00
2023-03-22T09:19:29.334Z,0.80
2023-03-22T09:21:56.366Z,1.08
2023-03-22T09:24:23.430Z,0.98
2023-03-22T09:26:50.435Z,1.30
2023-03-22T09:29:17.366Z,1.05
2023-03-22T09:31:44.709Z,1.70
2023-03-22T09:34:11.335Z,1.10
2023-03-22T09:36:37.932Z,1.20
2023-03-22T09:39:07.129Z,1.10
2023-03-22T09:41:46.714Z,1.40
2023-03-22T09:44:26.891Z,0.83
2023-03-22T09:46:59.043Z,1.02
2023-03-22T09:49:52.309Z,1.00
2023-03-22T09:52:20.501Z,1.20
2023-03-22T09:54:47.529Z,0.80
2023-03-22T09:57:22.548Z,1.77
2023-03-22T09:59:57.573Z,1.75
2023-03-22T10:02:48.126Z,0.82
2023-03-22T10:05:40.923Z,1.25
2023-03-22T10:08:46.101Z,1.33
2023-03-22T10:11:33.615Z,1.40
2023-03-22T10:14:21.334Z,0.70
2023-03-22T10:16:48.904Z,0.82
2023-03-22T10:19:32.740Z,0.90
2023-03-22T10:22:01.770Z,1.15
2023-03-22T10:24:37.958Z,0.67
2023-03-22T10:27:15.648Z,0.50
2023-03-22T10:29:56.033Z,0.77
2023-03-22T10:32:31.125Z,1.00
2023-03-22T10:34:58.274Z,1.42
2023-03-22T10:37:32.552Z,1.50
2023-03-22T10:40:06.143Z,1.17
2023-03-22T10:42:36.833Z,0.95
2023-03-22T10:45:12.275Z,1.15
2023-03-22T10:47:45.392Z,1.02
2023-03-22T10:50:19.561Z,0.93
2023-03-22T10:52:57.814Z,0.60
2023-03-22T10:55:25.948Z,0.80
2023-03-22T10:58:14.914Z,0.90
2023-03-22T11:01:00.296Z,3.03
2023-03-22T11:03:31.987Z,1.00
2023-03-22T11:06:12.034Z,0.70
2023-03-22T11:08:41.171Z,1.30
2023-03-22T11:11:20.264Z,1.20
2023-03-22T11:13:53.872Z,0.93
2023-03-22T11:16:20.773Z,1.03
2023-03-22T11:18:51.065Z,1.30
2023-03-22T11:21:19.777Z,1.02
2023-03-22T11:24:05.603Z,1.13
2023-03-22T11:26:38.824Z,1.20
2023-03-22T11:29:17.722Z,1.30
2023-03-22T11:32:02.204Z,1.13
2023-03-22T11:34:30.947Z,1.17
2023-03-22T11:37:00.998Z,1.23
2023-03-22T11:39:29.396Z,1.05
2023-03-22T11:42:01.936Z,1.07
2023-03-22T11:44:34.657Z,1.55
2023-03-22T11:47:03.234Z,1.30
2023-03-22T11:49:46.377Z,0.93
2023-03-22T11:52:18.640Z,1.40
2023-03-22T11:54:47.325Z,0.90
2023-03-22T11:57:18.738Z,0.75
2023-03-22T12:00:07.153Z,0.88
2023-03-22T12:02:41.519Z,1.48
2023-03-22T12:08:42.832Z,0.60
2023-03-22T12:11:21.042Z,0.95
2023-03-22T12:13:57.775Z,0.95
2023-03-22T12:16:36.281Z,1.15
2023-03-22T12:19:13.289Z,0.80
2023-03-22T12:21:41.533Z,0.80
2023-03-22T12:24:22.631Z,0.90
2023-03-22T12:26:53.167Z,0.90
2023-03-22T12:29:20.590Z,0.98
2023-03-22T12:32:01.793Z,0.70
2023-03-22T12:34:43.632Z,1.00
2023-03-22T12:37:17.836Z,0.95
2023-03-22T12:39:51.437Z,1.00
2023-03-22T12:42:34.640Z,0.70
2023-03-22T12:45:15.826Z,1.30
2023-03-22T12:47:47.875Z,1.27
2023-03-22T12:50:45.798Z,1.10
2023-03-22T12:53:16.452Z,0.60
2023-03-22T12:55:46.174Z,1.00
2023-03-22T12:58:18.564Z,1.13
2023-03-22T13:00:51.936Z,1.00
2023-03-22T13:03:26.828Z,1.00
2023-03-22T13:09:21.029Z,0.82
2023-03-22T13:12:09.145Z,0.68
2023-03-22T13:14:58.010Z,0.73
2023-03-22T13:17:29.605Z,0.73
2023-03-22T13:20:08.408Z,0.90
2023-03-22T13:22:43.907Z,1.05
2023-03-22T13:25:32.823Z,0.70
2023-03-22T13:28:20.542Z,1.07
2023-03-22T13:30:59.159Z,1.10
2023-03-22T13:33:29.017Z,0.82
2023-03-22T13:36:23.949Z,0.85
2023-03-22T13:39:04.808Z,0.70
2023-03-22T13:41:33.775Z,0.90
2023-03-22T13:44:18.886Z,1.02
2023-03-22T13:46:51.454Z,0.77
2023-03-22T13:49:50.042Z,1.13
2023-03-22T13:52:35.738Z,0.93
2023-03-22T13:55:03.495Z,1.07
2023-03-22T13:57:50.440Z,0.90
2023-03-22T14:03:31.612Z,0.75
2023-03-22T14:06:19.213Z,1.08
2023-03-22T14:08:49.859Z,0.80
2023-03-22T14:11:34.588Z,0.73
2023-03-22T14:14:11.315Z,0.90
2023-03-22T14:16:42.816Z,1.30
2023-03-22T14:19:17.484Z,0.98
